Date,TemperatureHighF,TemperatureAvgF,TemperatureLowF,DewpointHighF,DewpointAvgF,DewpointLowF,HumidityHigh,HumidityAvg,HumidityLow,PressureMaxIn,PressureMinIn,WindSpeedMaxMPH,WindSpeedAvgMPH,GustSpeedMaxMPH,PrecipitationSumIn
2013-10-1,81.2,57.6,44.7,62.2,52.8,43.9,99,86,46,30.05,29.90,12,0,12,0.00
2013-10-2,77.5,63.5,50.3,62.9,55.4,49.6,98,77,46,30.01,29.86,18,4,18,0.00
2013-10-3,70.5,57.2,45.8,54.5,49.4,44.2,96,77,49,30.15,30.01,12,1,12,0.00
2013-10-4,63.3,55.0,45.2,55.6,50.9,43.9,96,86,71,30.13,30.07,7,0,7,0.00
2013-10-5,60.7,57.2,54.5,53.8,51.3,47.9,85,81,72,30.17,30.09,9,0,9,0.00
2013-10-6,57.8,55.1,52.0,52.6,49.9,46.7,92,82,73,30.16,30.05,19,3,19,0.14
2013-10-7,74.9,63.1,51.8,65.2,57.0,49.0,94,81,63,30.05,29.60,37,6,37,0.41
2013-10-8,64.6,51.5,39.5,49.8,42.4,36.9,94,73,44,30.43,29.94,22,1,22,0.00
2013-10-9,69.3,47.6,35.2,51.9,40.0,33.9,100,78,39,30.51,30.38,10,1,10,0.00
2013-10-10,65.9,49.3,38.9,50.8,43.1,37.3,96,81,51,30.39,30.20,11,1,11,0.00
2013-10-11,72.3,55.0,44.7,53.2,47.0,42.2,94,77,44,30.22,30.14,11,0,11,0.00
2013-10-12,69.9,54.7,41.8,54.5,48.0,40.5,97,79,56,30.38,30.21,16,2,16,0.00
2013-10-13,69.6,56.6,48.5,54.9,48.6,45.7,90,76,54,30.45,30.33,12,2,12,0.00
2013-10-14,60.3,53.5,46.9,54.2,49.8,44.1,96,87,79,30.38,30.27,14,1,14,0.00
2013-10-15,63.0,57.8,54.2,57.1,54.2,52.5,95,88,76,30.30,30.12,6,0,6,0.00
2013-10-16,64.0,57.9,52.5,55.3,52.8,48.6,93,84,65,30.14,29.86,20,2,20,0.02
2013-10-17,65.9,58.1,50.8,56.4,51.5,46.2,95,80,52,29.88,29.66,16,2,16,0.17
2013-10-18,59.7,54.5,45.0,52.6,47.1,36.2,96,77,48,29.95,29.62,29,6,29,0.42
2013-10-19,61.6,50.4,38.3,48.3,42.5,36.5,94,76,55,29.97,29.69,26,4,26,0.02
2013-10-20,54.9,49.4,37.8,49.3,40.3,34.6,91,72,48,30.05,29.68,28,8,28,0.01
2013-10-21,61.8,49.6,35.9,47.0,40.1,34.1,95,72,50,30.12,29.90,20,4,20,0.00
2013-10-22,57.3,50.4,34.8,48.4,40.7,30.4,89,70,53,29.90,29.75,24,7,24,0.00
2013-10-23,51.5,42.1,32.7,38.6,34.3,29.6,96,75,52,29.84,29.65,15,2,15,0.01
2013-10-24,46.7,41.0,33.2,37.4,33.4,28.8,92,75,59,29.94,29.72,32,11,32,0.00
2013-10-25,44.7,39.6,32.0,34.8,30.2,26.2,86,70,52,30.17,29.94,19,4,19,0.00
2013-10-26,48.8,42.0,30.1,36.3,32.5,26.4,92,70,49,30.18,29.84,35,9,35,0.00
2013-10-27,47.9,43.3,33.1,38.1,32.3,27.4,86,66,47,30.09,29.81,22,6,22,0.00
2013-10-28,47.7,39.6,29.1,38.2,30.5,20.3,92,70,51,30.42,30.07,23,4,23,0.00
2013-10-29,45.9,31.7,22.1,26.5,21.6,18.6,92,68,39,30.53,30.38,9,0,9,0.00
2013-10-30,48.0,37.7,28.8,38.4,30.5,19.9,91,75,61,30.38,30.22,14,2,14,0.01
2013-10-31,60.1,43.9,33.1,58.3,42.5,31.6,99,95,88,30.28,29.64,21,2,21,0.26